Terminal Aerodrome Forecast
Issued by NWS

Home | Current Version | Previous Version | Graphics & Text | Print | Product List | Glossary On
Versions: 1 2 3 4 5 6 7 8 9 10 11 12 13 14 15 16
563
FTUS43 KIWX 132338
TAFSBN
TAF
KSBN 132338Z 1400/1424 27014G21KT 5SM -SN BR OVC015
      TEMPO 1400/1402 1SM -SN BR
     FM140300 33016G23KT P6SM -SN OVC025
     FM140800 35010KT P6SM BKN040=

USA.gov is the U.S. government's official web portal to all federal, state and local government web resources and services.